createdAt,value
2017-09-06T00:01:14.316Z,85.93
2017-09-06T00:03:16.016Z,86.89
2017-09-06T00:05:18.381Z,86.79
2017-09-06T00:07:20.261Z,86.60
2017-09-06T00:09:21.984Z,86.41
2017-09-06T00:11:23.660Z,86.31
2017-09-06T00:13:25.467Z,85.74
2017-09-06T00:15:27.292Z,85.74
2017-09-06T00:17:28.820Z,85.93
2017-09-06T00:20:15.486Z,86.22
2017-09-06T00:22:16.817Z,86.31
2017-09-06T00:24:18.422Z,85.74
2017-09-06T00:26:20.943Z,86.02
2017-09-06T00:28:22.555Z,86.41
2017-09-06T00:30:25.602Z,86.12
2017-09-06T00:32:27.263Z,86.69
2017-09-06T00:34:29.196Z,86.79
2017-09-06T00:37:11.140Z,86.89
2017-09-06T00:39:12.513Z,86.89
2017-09-06T00:41:13.943Z,86.12
2017-09-06T00:43:18.593Z,86.02
2017-09-06T00:45:20.036Z,85.93
2017-09-06T00:47:21.826Z,85.54
2017-09-06T00:49:23.294Z,85.83
2017-09-06T00:51:25.865Z,86.41
2017-09-06T00:53:27.641Z,86.99
2017-09-06T00:55:29.138Z,87.23
2017-09-06T00:57:30.630Z,87.08
2017-09-06T00:59:32.192Z,87.27
2017-09-06T01:01:34.462Z,87.08
2017-09-06T01:03:36.281Z,87.23
2017-09-06T01:05:37.784Z,86.94
2017-09-06T01:08:20.347Z,88.39
2017-09-06T01:10:21.841Z,88.39
2017-09-06T01:12:25.762Z,88.29
2017-09-06T01:14:28.245Z,87.42
2017-09-06T01:16:30.031Z,88.00
2017-09-06T01:18:31.723Z,87.71
2017-09-06T01:20:34.418Z,87.71
2017-09-06T01:23:16.837Z,88.19
2017-09-06T01:25:18.649Z,88.00
2017-09-06T01:27:20.163Z,88.00
2017-09-06T01:29:21.696Z,87.90
2017-09-06T01:31:23.276Z,88.48
2017-09-06T01:33:24.830Z,88.00
2017-09-06T01:35:26.395Z,88.19
2017-09-06T01:37:27.890Z,87.71
2017-09-06T01:39:29.394Z,87.90
2017-09-06T01:41:31.247Z,87.52
2017-09-06T01:43:32.747Z,86.79
2017-09-06T01:45:35.633Z,87.13
2017-09-06T01:47:37.259Z,87.42
2017-09-06T01:49:38.798Z,86.75
2017-09-06T01:51:40.583Z,87.04
2017-09-06T01:53:42.937Z,86.89
2017-09-06T01:56:25.353Z,87.33
2017-09-06T01:58:26.855Z,87.81
2017-09-06T02:00:28.277Z,87.42
2017-09-06T02:02:29.701Z,87.62
2017-09-06T02:04:31.126Z,87.90
2017-09-06T02:06:32.543Z,88.15
2017-09-06T02:08:33.979Z,88.82
2017-09-06T02:10:35.624Z,88.82
2017-09-06T02:12:39.317Z,88.92
2017-09-06T02:14:41.138Z,89.78
2017-09-06T02:16:42.578Z,90.55
2017-09-06T02:18:44.382Z,90.26
2017-09-06T02:20:46.192Z,90.17
2017-09-06T02:22:47.664Z,90.75
2017-09-06T02:24:49.274Z,90.45
2017-09-06T02:26:51.116Z,90.65
2017-09-06T02:28:52.750Z,90.75
2017-09-06T02:30:54.269Z,90.55
2017-09-06T02:32:55.823Z,90.17
2017-09-06T02:34:59.683Z,90.55
2017-09-06T02:37:04.069Z,90.84
2017-09-06T02:39:07.736Z,89.88
2017-09-06T02:41:49.368Z,90.75
2017-09-06T02:43:50.824Z,90.26
2017-09-06T02:45:52.362Z,90.26
2017-09-06T02:47:53.784Z,90.36
2017-09-06T02:49:55.884Z,90.65
2017-09-06T02:51:57.532Z,90.84
2017-09-06T02:54:01.176Z,90.55
2017-09-06T02:56:42.889Z,90.45
2017-09-06T02:59:26.739Z,90.75
2017-09-06T03:01:28.281Z,90.55
2017-09-06T03:03:30.352Z,90.55
2017-09-06T03:05:34.663Z,90.45
2017-09-06T03:07:38.735Z,90.55
2017-09-06T03:09:40.193Z,90.55
2017-09-06T03:12:23.168Z,90.26
2017-09-06T03:14:24.725Z,90.75
2017-09-06T03:16:27.818Z,90.75
2017-09-06T03:18:29.070Z,90.07
2017-09-06T03:20:30.893Z,89.88
2017-09-06T03:22:32.648Z,90.36
2017-09-06T03:24:34.223Z,90.07
2017-09-06T03:26:35.744Z,90.45
2017-09-06T03:29:17.562Z,90.07
2017-09-06T03:31:19.025Z,90.26
2017-09-06T03:33:20.656Z,90.45
2017-09-06T03:35:23.589Z,90.07
2017-09-06T03:37:25.348Z,90.26
2017-09-06T03:39:28.930Z,90.60
2017-09-06T03:41:30.777Z,90.65
2017-09-06T03:43:32.573Z,90.80
2017-09-06T03:46:18.971Z,90.65
2017-09-06T03:48:20.608Z,90.17
2017-09-06T03:50:23.764Z,90.51
2017-09-06T03:52:26.496Z,90.26
2017-09-06T03:54:27.974Z,90.36
2017-09-06T03:56:31.566Z,90.12
2017-09-06T03:58:33.149Z,90.51
2017-09-06T04:01:15.748Z,90.75
2017-09-06T04:03:17.234Z,90.65
2017-09-06T04:05:18.715Z,91.75
2017-09-06T04:07:20.158Z,92.14
2017-09-06T04:09:21.601Z,91.75
2017-09-06T04:11:23.112Z,91.75
2017-09-06T04:13:24.588Z,92.52
2017-09-06T04:15:26.220Z,91.28
2017-09-06T04:17:27.723Z,91.37
2017-09-06T04:19:29.216Z,92.52
2017-09-06T04:21:30.692Z,92.52
2017-09-06T04:23:33.778Z,92.72
2017-09-06T04:25:35.264Z,92.52
2017-09-06T04:27:36.986Z,92.52
2017-09-06T04:29:38.718Z,92.43
2017-09-06T04:32:21.300Z,91.28
2017-09-06T04:34:23.022Z,91.66
2017-09-06T04:36:24.946Z,92.43
2017-09-06T04:38:26.499Z,91.75
2017-09-06T04:40:27.931Z,92.52
2017-09-06T04:42:29.747Z,92.29
2017-09-06T04:44:31.621Z,92.96
2017-09-06T04:46:36.197Z,93.44
2017-09-06T04:49:17.977Z,92.96
2017-09-06T04:51:19.438Z,93.25
2017-09-06T04:53:20.870Z,93.29
2017-09-06T04:55:22.859Z,93.34
2017-09-06T04:57:26.326Z,93.19
2017-09-06T04:59:27.919Z,92.52
2017-09-06T05:01:29.778Z,92.62
2017-09-06T05:03:31.594Z,92.81
2017-09-06T05:06:19.062Z,93.49
2017-09-06T05:08:20.341Z,92.24
2017-09-06T05:10:21.994Z,92.52
2017-09-06T05:12:23.442Z,92.62
2017-09-06T05:14:25.295Z,92.62
2017-09-06T05:16:26.945Z,92.24
2017-09-06T05:18:29.376Z,92.67
2017-09-06T05:21:19.386Z,93.44
2017-09-06T05:23:20.887Z,93.39
2017-09-06T05:25:23.208Z,92.52
2017-09-06T05:27:24.677Z,92.62
2017-09-06T05:29:26.131Z,92.43
2017-09-06T05:31:27.572Z,92.33
2017-09-06T05:33:28.987Z,91.37
2017-09-06T05:35:30.412Z,92.72
2017-09-06T05:37:31.830Z,92.33
2017-09-06T05:39:33.252Z,92.33
2017-09-06T05:41:35.015Z,92.33
2017-09-06T05:43:36.974Z,91.85
2017-09-06T05:45:38.438Z,92.24
2017-09-06T05:47:39.911Z,92.72
2017-09-06T05:49:41.352Z,92.14
2017-09-06T05:51:42.773Z,91.18
2017-09-06T05:53:44.600Z,91.18
2017-09-06T05:55:46.073Z,91.66
2017-09-06T05:57:47.500Z,91.47
2017-09-06T05:59:49.522Z,91.18
2017-09-06T06:01:50.956Z,91.95
2017-09-06T06:03:52.380Z,92.43
2017-09-06T06:05:53.806Z,92.43
2017-09-06T06:07:55.230Z,92.43
2017-09-06T06:09:56.653Z,92.33
2017-09-06T06:11:58.080Z,91.61
2017-09-06T06:13:59.502Z,91.52
2017-09-06T06:16:00.932Z,91.22
2017-09-06T06:18:02.359Z,90.94
2017-09-06T06:20:03.782Z,91.22
2017-09-06T06:22:05.216Z,91.90
2017-09-06T06:24:07.023Z,91.85
2017-09-06T06:26:08.473Z,92.33
2017-09-06T06:28:09.898Z,93.77
2017-09-06T06:30:11.319Z,93.77
2017-09-06T06:32:12.752Z,93.91
2017-09-06T06:34:14.174Z,93.87
2017-09-06T06:36:15.606Z,94.54
2017-09-06T06:38:17.576Z,94.83
2017-09-06T06:40:19.046Z,95.07
2017-09-06T06:42:20.475Z,95.98
2017-09-06T06:44:21.898Z,96.66
2017-09-06T06:46:23.323Z,95.55
2017-09-06T06:48:24.787Z,96.32
2017-09-06T06:50:26.219Z,96.89
2017-09-06T06:52:27.648Z,97.38
2017-09-06T06:54:29.076Z,97.38
2017-09-06T06:56:30.792Z,97.19
2017-09-06T06:58:32.264Z,97.04
2017-09-06T07:00:33.752Z,96.66
2017-09-06T07:02:35.172Z,95.45
2017-09-06T07:04:36.590Z,94.59
2017-09-06T07:06:38.019Z,95.03
2017-09-06T07:08:39.452Z,94.64
2017-09-06T07:10:40.868Z,97.24
2017-09-06T07:12:42.294Z,98.58
2017-09-06T07:14:43.723Z,98.68
2017-09-06T07:16:45.152Z,98.58
2017-09-06T07:18:46.575Z,99.58
2017-09-06T07:20:47.998Z,99.10
2017-09-06T07:22:49.427Z,99.58
2017-09-06T07:24:50.856Z,99.78
2017-09-06T07:26:52.503Z,99.30
2017-09-06T07:28:53.920Z,99.20
2017-09-06T07:30:55.492Z,99.99
2017-09-06T07:32:56.942Z,99.99
2017-09-06T07:34:58.697Z,99.99
2017-09-06T07:37:00.630Z,99.99
2017-09-06T07:39:02.090Z,99.78
2017-09-06T07:41:03.524Z,98.24
2017-09-06T07:43:04.946Z,98.10
2017-09-06T07:45:06.494Z,96.47
2017-09-06T07:47:07.934Z,95.60
2017-09-06T07:49:09.475Z,96.66
2017-09-06T07:51:11.480Z,96.47
2017-09-06T07:53:12.960Z,97.33
2017-09-06T07:55:14.620Z,96.99
2017-09-06T07:57:16.045Z,97.33
2017-09-06T07:59:17.590Z,96.89
2017-09-06T08:01:18.994Z,96.47
2017-09-06T08:03:20.422Z,95.98
2017-09-06T08:05:21.846Z,95.60
2017-09-06T08:07:23.270Z,94.78
2017-09-06T08:09:24.697Z,95.21
2017-09-06T08:11:26.122Z,94.73
2017-09-06T08:13:27.549Z,95.03
2017-09-06T08:15:28.975Z,94.35
2017-09-06T08:17:30.401Z,95.94
2017-09-06T08:19:31.829Z,96.42
2017-09-06T08:21:33.386Z,95.65
2017-09-06T08:23:35.454Z,95.84
2017-09-06T08:25:36.881Z,96.32
2017-09-06T08:27:38.325Z,95.55
2017-09-06T08:29:39.750Z,96.22
2017-09-06T08:31:41.176Z,94.49
2017-09-06T08:33:42.603Z,93.25
2017-09-06T08:35:44.028Z,93.25
2017-09-06T08:37:45.596Z,93.44
2017-09-06T08:39:47.011Z,94.40
2017-09-06T08:41:48.804Z,93.82
2017-09-06T08:43:50.233Z,93.15
2017-09-06T08:45:51.650Z,94.01
2017-09-06T08:47:53.077Z,93.63
2017-09-06T08:49:54.504Z,92.19
2017-09-06T08:51:55.934Z,92.00
2017-09-06T08:53:57.356Z,92.19
2017-09-06T08:55:58.790Z,91.23
2017-09-06T08:58:00.218Z,89.98
2017-09-06T09:00:01.641Z,90.37
2017-09-06T09:02:03.395Z,90.46
2017-09-06T09:04:04.822Z,90.27
2017-09-06T09:06:06.240Z,90.17
2017-09-06T09:08:08.868Z,88.83
2017-09-06T09:10:10.366Z,89.22
2017-09-06T09:12:11.790Z,88.35
2017-09-06T09:14:13.483Z,87.87
2017-09-06T09:16:15.417Z,88.54
2017-09-06T09:18:16.843Z,89.65
2017-09-06T09:20:18.270Z,89.84
2017-09-06T09:22:19.697Z,89.61
2017-09-06T09:24:21.119Z,88.74
2017-09-06T09:26:22.549Z,89.41
2017-09-06T09:28:23.974Z,90.28
2017-09-06T09:30:25.762Z,89.61
2017-09-06T09:32:27.194Z,88.93
2017-09-06T09:34:28.616Z,88.74
2017-09-06T09:36:30.037Z,89.32
2017-09-06T09:38:34.671Z,89.12
2017-09-06T09:40:36.233Z,88.65
2017-09-06T09:42:37.726Z,88.69
2017-09-06T09:44:44.352Z,87.35
2017-09-06T09:46:45.443Z,87.44
2017-09-06T09:48:46.926Z,85.91
2017-09-06T09:50:49.871Z,86.96
2017-09-06T09:52:51.363Z,87.35
2017-09-06T09:54:52.809Z,85.18
2017-09-06T09:56:54.241Z,84.12
2017-09-06T09:58:55.678Z,82.40
2017-09-06T10:00:57.102Z,82.97
2017-09-06T10:02:58.840Z,81.86
2017-09-06T10:05:41.277Z,80.32
2017-09-06T10:07:42.704Z,80.80
2017-09-06T10:09:44.134Z,80.46
2017-09-06T10:11:45.560Z,79.75
2017-09-06T10:13:47.010Z,80.07
2017-09-06T10:15:48.438Z,78.34
2017-09-06T10:17:50.376Z,77.96
2017-09-06T10:19:51.864Z,77.71
2017-09-06T10:22:34.506Z,77.61
2017-09-06T10:24:35.938Z,76.07
2017-09-06T10:26:37.381Z,77.17
2017-09-06T10:28:38.810Z,74.29
2017-09-06T10:30:40.247Z,76.06
2017-09-06T10:32:41.662Z,74.90
2017-09-06T10:34:43.115Z,72.39
2017-09-06T10:36:44.545Z,71.62
2017-09-06T10:38:46.013Z,71.49
2017-09-06T10:40:47.484Z,71.40
2017-09-06T10:42:48.916Z,73.86
2017-09-06T10:44:50.425Z,75.24
2017-09-06T10:46:51.849Z,75.73
2017-09-06T10:48:53.331Z,71.30
2017-09-06T10:50:54.774Z,71.53
2017-09-06T10:53:37.487Z,71.43
2017-09-06T10:55:38.904Z,69.89
2017-09-06T10:57:40.344Z,69.70
2017-09-06T10:59:41.904Z,70.37
2017-09-06T11:01:43.604Z,68.74
2017-09-06T11:03:45.258Z,69.60
2017-09-06T11:05:46.699Z,70.66
2017-09-06T11:08:29.313Z,72.65
2017-09-06T11:10:30.749Z,71.30
2017-09-06T11:12:32.166Z,70.82
2017-09-06T11:14:33.658Z,71.43
2017-09-06T11:16:36.749Z,70.95
2017-09-06T11:18:38.231Z,69.12
2017-09-06T11:20:39.699Z,67.58
2017-09-06T11:22:41.143Z,69.12
2017-09-06T11:24:43.512Z,68.54
2017-09-06T11:26:44.948Z,66.62
2017-09-06T11:28:46.430Z,67.45
2017-09-06T11:30:48.825Z,66.62
2017-09-06T11:32:50.360Z,68.44
2017-09-06T11:34:52.691Z,65.40
2017-09-06T11:36:54.162Z,66.59
2017-09-06T11:38:55.621Z,65.05
2017-09-06T11:40:57.129Z,64.76
2017-09-06T11:42:58.580Z,65.11
2017-09-06T11:45:00.051Z,64.92
2017-09-06T11:47:01.502Z,70.18
2017-09-06T11:49:03.060Z,68.60
2017-09-06T11:51:04.535Z,70.30
2017-09-06T11:53:06.053Z,70.56
2017-09-06T11:55:07.487Z,72.00
2017-09-06T11:57:08.932Z,73.92
2017-09-06T11:59:10.357Z,71.48
2017-09-06T12:01:11.822Z,71.39
2017-09-06T12:03:13.272Z,72.06
2017-09-06T12:05:14.731Z,72.64
2017-09-06T12:07:16.173Z,72.44
2017-09-06T12:09:17.649Z,72.99
2017-09-06T12:12:00.079Z,75.32
2017-09-06T12:14:04.598Z,76.00
2017-09-06T12:16:07.390Z,76.00
2017-09-06T12:18:09.757Z,75.62
2017-09-06T12:20:11.741Z,76.48
2017-09-06T12:22:13.169Z,77.34
2017-09-06T12:24:14.604Z,76.32
2017-09-06T12:26:16.032Z,75.75
2017-09-06T12:28:58.434Z,75.42
2017-09-06T12:30:59.853Z,74.37
2017-09-06T12:33:01.288Z,73.41
2017-09-06T12:35:03.256Z,74.13
2017-09-06T12:37:04.644Z,75.00
2017-09-06T12:39:06.082Z,75.62
2017-09-06T12:41:07.771Z,74.46
2017-09-06T12:43:09.174Z,73.21
2017-09-06T12:45:10.652Z,74.71
2017-09-06T12:47:12.078Z,75.00
2017-09-06T12:49:13.653Z,76.59
2017-09-06T12:51:15.130Z,76.59
2017-09-06T12:53:16.617Z,77.46
2017-09-06T12:55:18.103Z,76.12
2017-09-06T12:57:19.569Z,77.46
2017-09-06T12:59:21.050Z,78.03
2017-09-06T13:01:22.493Z,75.82
2017-09-06T13:03:23.959Z,75.92
2017-09-06T13:05:25.722Z,75.82
2017-09-06T13:07:27.200Z,76.98
2017-09-06T13:09:29.007Z,76.21
2017-09-06T13:11:31.079Z,75.25
2017-09-06T13:13:32.522Z,74.77
2017-09-06T13:15:34.664Z,73.43
2017-09-06T13:17:36.133Z,74.58
2017-09-06T13:19:37.613Z,74.71
2017-09-06T13:21:40.081Z,74.04
2017-09-06T13:23:41.584Z,72.54
2017-09-06T13:25:43.136Z,71.58
2017-09-06T13:27:44.604Z,72.12
2017-09-06T13:30:27.005Z,70.78
2017-09-06T13:32:28.461Z,71.93
2017-09-06T13:34:29.953Z,71.39
2017-09-06T13:36:31.365Z,70.23
2017-09-06T13:38:33.820Z,71.19
2017-09-06T13:40:35.133Z,69.66
2017-09-06T13:42:36.614Z,70.14
2017-09-06T13:44:38.014Z,68.79
2017-09-06T13:47:20.434Z,65.33
2017-09-06T13:49:24.968Z,63.51
2017-09-06T13:51:26.225Z,64.47
2017-09-06T13:53:27.652Z,65.97
2017-09-06T13:55:29.073Z,66.64
2017-09-06T13:57:30.496Z,66.93
2017-09-06T13:59:31.922Z,68.57
2017-09-06T14:01:33.353Z,69.91
2017-09-06T14:03:35.778Z,68.57
2017-09-06T14:05:37.158Z,70.10
2017-09-06T14:07:38.582Z,69.91
2017-09-06T14:09:41.045Z,71.10
2017-09-06T14:11:42.473Z,69.27
2017-09-06T14:13:43.905Z,69.53
2017-09-06T14:15:45.332Z,69.46
2017-09-06T14:17:47.675Z,70.14
2017-09-06T14:19:49.079Z,70.14
2017-09-06T14:21:50.496Z,71.61
2017-09-06T14:23:51.923Z,71.81
2017-09-06T14:25:53.353Z,70.65
2017-09-06T14:27:55.623Z,69.79
2017-09-06T14:29:58.017Z,70.94
2017-09-06T14:31:59.607Z,69.79
2017-09-06T14:34:01.059Z,71.08
2017-09-06T14:36:02.489Z,69.40
2017-09-06T14:38:03.912Z,69.79
2017-09-06T14:40:06.557Z,69.60
2017-09-06T14:42:07.896Z,70.46
2017-09-06T14:44:09.326Z,70.81
2017-09-06T14:46:10.758Z,71.29
2017-09-06T14:48:12.182Z,71.64
2017-09-06T14:50:13.611Z,72.02
2017-09-06T14:52:15.042Z,72.31
2017-09-06T14:54:16.868Z,71.93
2017-09-06T14:56:19.009Z,72.31
2017-09-06T14:58:21.315Z,71.93
2017-09-06T15:00:22.865Z,72.89
2017-09-06T15:02:24.287Z,72.02
2017-09-06T15:04:25.712Z,72.02
2017-09-06T15:06:27.139Z,71.25
2017-09-06T15:08:28.577Z,70.81
2017-09-06T15:10:30.004Z,68.98
2017-09-06T15:12:31.431Z,69.85
2017-09-06T15:14:34.019Z,68.63
2017-09-06T15:16:36.405Z,67.54
2017-09-06T15:18:37.958Z,68.41
2017-09-06T15:20:39.431Z,66.71
2017-09-06T15:22:40.867Z,65.91
2017-09-06T15:24:42.294Z,65.43
2017-09-06T15:26:43.718Z,66.07
2017-09-06T15:28:45.145Z,67.51
2017-09-06T15:30:48.787Z,67.90
2017-09-06T15:32:50.616Z,66.84
2017-09-06T15:34:52.772Z,68.76
2017-09-06T15:36:54.158Z,73.46
2017-09-06T15:38:55.657Z,75.45
2017-09-06T15:40:57.153Z,77.21
2017-09-06T15:42:58.647Z,75.57
2017-09-06T15:45:01.117Z,74.08
2017-09-06T15:47:02.617Z,74.46
2017-09-06T15:49:05.750Z,75.32
2017-09-06T15:51:07.176Z,72.06
2017-09-06T15:53:09.780Z,73.41
2017-09-06T15:55:11.223Z,72.83
2017-09-06T15:57:12.646Z,73.11
2017-09-06T15:59:14.075Z,71.58
2017-09-06T16:01:15.502Z,72.25
2017-09-06T16:03:16.927Z,72.44
2017-09-06T16:05:18.352Z,72.44
2017-09-06T16:07:19.773Z,70.87
2017-09-06T16:09:21.221Z,73.08
2017-09-06T16:11:22.645Z,71.06
2017-09-06T16:13:24.069Z,71.10
2017-09-06T16:15:26.536Z,70.90
2017-09-06T16:17:29.106Z,71.39
2017-09-06T16:19:30.647Z,70.14
2017-09-06T16:21:32.073Z,68.60
2017-09-06T16:23:33.500Z,69.56
2017-09-06T16:25:34.928Z,69.08
2017-09-06T16:27:36.353Z,68.70
2017-09-06T16:29:37.777Z,69.46
2017-09-06T16:31:39.201Z,68.89
2017-09-06T16:33:40.629Z,67.45
2017-09-06T16:35:42.057Z,67.74
2017-09-06T16:37:43.485Z,67.83
2017-09-06T16:39:45.200Z,64.28
2017-09-06T16:41:46.640Z,64.85
2017-09-06T16:43:48.068Z,64.95
2017-09-06T16:45:49.507Z,65.20
2017-09-06T16:47:50.917Z,66.16
2017-09-06T16:49:52.345Z,65.78
2017-09-06T16:51:55.256Z,66.16
2017-09-06T16:53:57.166Z,67.13
2017-09-06T16:55:58.632Z,68.08
2017-09-06T16:58:01.513Z,68.51
2017-09-06T17:00:04.628Z,67.22
2017-09-06T17:02:06.151Z,68.47
2017-09-06T17:04:09.521Z,67.51
2017-09-06T17:06:10.918Z,68.31
2017-09-06T17:08:13.405Z,67.07
2017-09-06T17:10:16.362Z,66.00
2017-09-06T17:12:18.788Z,65.05
2017-09-06T17:14:20.234Z,63.96
2017-09-06T17:16:21.680Z,65.20
2017-09-06T17:18:23.138Z,65.08
2017-09-06T17:20:24.596Z,65.97
2017-09-06T17:22:27.032Z,66.64
2017-09-06T17:24:28.556Z,66.07
2017-09-06T17:26:30.020Z,65.36
2017-09-06T17:28:31.492Z,66.93
2017-09-06T17:30:33.002Z,66.52
2017-09-06T17:32:34.465Z,66.55
2017-09-06T17:34:35.974Z,66.46
2017-09-06T17:36:37.490Z,67.22
2017-09-06T17:38:39.271Z,66.42
2017-09-06T17:40:41.530Z,66.71
2017-09-06T17:42:43.939Z,67.47
2017-09-06T17:44:45.421Z,68.44
2017-09-06T17:46:47.030Z,69.30
2017-09-06T17:48:48.443Z,68.98
2017-09-06T17:50:49.871Z,69.17
2017-09-06T17:52:52.105Z,69.74
2017-09-06T17:54:53.654Z,69.59
2017-09-06T17:56:55.108Z,69.36
2017-09-06T17:58:56.579Z,69.74
2017-09-06T18:00:58.014Z,69.74
2017-09-06T18:02:59.438Z,70.32
2017-09-06T18:05:00.860Z,70.42
2017-09-06T18:07:02.279Z,70.51
2017-09-06T18:09:03.761Z,70.23
2017-09-06T18:11:05.183Z,70.32
2017-09-06T18:13:06.612Z,69.84
2017-09-06T18:15:08.031Z,69.93
2017-09-06T18:17:09.457Z,70.23
2017-09-06T18:19:12.366Z,69.93
2017-09-06T18:21:13.694Z,69.56
2017-09-06T18:23:15.119Z,71.09
2017-09-06T18:25:16.581Z,70.90
2017-09-06T18:27:20.073Z,70.42
2017-09-06T18:29:21.540Z,70.13
2017-09-06T18:32:03.948Z,70.90
2017-09-06T18:34:05.365Z,71.09
2017-09-06T18:36:06.785Z,71.37
2017-09-06T18:38:09.667Z,71.76
2017-09-06T18:40:11.017Z,71.82
2017-09-06T18:42:14.408Z,71.92
2017-09-06T18:44:15.736Z,72.01
2017-09-06T18:46:19.085Z,72.39
2017-09-06T18:48:20.561Z,72.39
2017-09-06T18:50:22.041Z,72.68
2017-09-06T18:52:24.985Z,72.88
2017-09-06T18:54:27.355Z,72.78
2017-09-06T18:56:28.831Z,72.78
2017-09-06T18:58:30.317Z,73.41
2017-09-06T19:00:31.763Z,73.70
2017-09-06T19:02:33.276Z,73.65
2017-09-06T19:04:34.738Z,73.03
2017-09-06T19:06:36.273Z,73.90
2017-09-06T19:08:37.744Z,73.90
2017-09-06T19:10:39.208Z,74.57
2017-09-06T19:12:40.727Z,74.47
2017-09-06T19:14:42.229Z,74.57
2017-09-06T19:16:43.721Z,74.66
2017-09-06T19:18:45.230Z,74.37
2017-09-06T19:20:46.713Z,74.66
2017-09-06T19:22:48.206Z,74.66
2017-09-06T19:24:49.655Z,74.27
2017-09-06T19:26:51.173Z,74.85
2017-09-06T19:28:53.960Z,74.27
2017-09-06T19:30:55.439Z,75.14
2017-09-06T19:32:58.384Z,75.39
2017-09-06T19:34:59.946Z,74.82
2017-09-06T19:37:02.868Z,75.10
2017-09-06T19:39:04.329Z,75.23
2017-09-06T19:41:05.878Z,75.20
2017-09-06T19:43:07.377Z,75.39
2017-09-06T19:45:08.898Z,75.87
2017-09-06T19:47:10.371Z,76.25
2017-09-06T19:49:11.853Z,77.21
2017-09-06T19:51:13.293Z,77.11
2017-09-06T19:53:14.780Z,76.92
2017-09-06T19:55:16.253Z,76.92
2017-09-06T19:57:17.817Z,76.92
2017-09-06T19:59:19.272Z,76.44
2017-09-06T20:01:20.766Z,77.02
2017-09-06T20:03:22.234Z,76.73
2017-09-06T20:05:23.714Z,77.02
2017-09-06T20:07:25.204Z,78.27
2017-09-06T20:09:26.672Z,78.64
2017-09-06T20:11:28.152Z,78.55
2017-09-06T20:13:29.703Z,79.03
2017-09-06T20:15:33.467Z,78.93
2017-09-06T20:17:35.002Z,78.74
2017-09-06T20:19:36.504Z,78.55
2017-09-06T20:21:37.980Z,79.13
2017-09-06T20:23:39.447Z,78.74
2017-09-06T20:25:40.884Z,78.36
2017-09-06T20:27:44.128Z,78.64
2017-09-06T20:29:45.586Z,78.55
2017-09-06T20:31:47.052Z,78.55
2017-09-06T20:33:48.539Z,78.07
2017-09-06T20:35:49.974Z,77.97
2017-09-06T20:37:51.394Z,78.84
2017-09-06T20:39:52.810Z,78.64
2017-09-06T20:41:54.231Z,78.84
2017-09-06T20:43:55.649Z,78.93
2017-09-06T20:45:57.943Z,78.99
2017-09-06T20:47:59.363Z,78.99
2017-09-06T20:50:00.785Z,79.75
2017-09-06T20:52:02.202Z,79.75
2017-09-06T20:54:48.143Z,79.66
2017-09-06T20:56:51.566Z,79.85
2017-09-06T20:58:52.940Z,79.51
2017-09-06T21:00:56.166Z,79.47
2017-09-06T21:02:57.532Z,79.47
2017-09-06T21:05:01.288Z,79.28
2017-09-06T21:07:02.697Z,79.75
2017-09-06T21:09:04.118Z,79.95
2017-09-06T21:11:05.539Z,80.14
2017-09-06T21:13:06.968Z,79.66
2017-09-06T21:15:08.403Z,79.75
2017-09-06T21:17:11.831Z,79.66
2017-09-06T21:19:13.117Z,80.43
2017-09-06T21:21:16.216Z,80.62
2017-09-06T21:23:17.669Z,80.43
2017-09-06T21:26:03.720Z,80.71
2017-09-06T21:28:05.030Z,80.43
2017-09-06T21:30:06.440Z,79.95
2017-09-06T21:32:09.497Z,79.95
2017-09-06T21:34:10.811Z,80.24
2017-09-06T21:36:12.480Z,80.04
2017-09-06T21:38:13.971Z,80.24
2017-09-06T21:40:55.388Z,80.62
2017-09-06T21:42:56.808Z,81.29
2017-09-06T21:45:00.626Z,81.25
2017-09-06T21:47:01.851Z,81.29
2017-09-06T21:49:03.271Z,80.62
2017-09-06T21:51:04.689Z,80.24
2017-09-06T21:53:06.109Z,80.33
2017-09-06T21:55:09.552Z,80.62
2017-09-06T21:57:10.914Z,80.62
2017-09-06T21:59:12.330Z,81.10
2017-09-06T22:01:13.760Z,80.90
2017-09-06T22:03:16.634Z,80.71
2017-09-06T22:05:18.046Z,80.14
2017-09-06T22:07:19.466Z,80.04
2017-09-06T22:09:22.742Z,80.04
2017-09-06T22:11:24.048Z,79.85
2017-09-06T22:13:25.469Z,79.85
2017-09-06T22:15:27.163Z,79.75
2017-09-06T22:17:31.046Z,80.04
2017-09-06T22:19:32.398Z,79.85
2017-09-06T22:21:35.669Z,80.52
2017-09-06T22:23:39.332Z,80.71
2017-09-06T22:25:42.678Z,81.10
2017-09-06T22:28:25.067Z,81.20
2017-09-06T22:30:26.488Z,81.38
2017-09-06T22:32:27.910Z,81.48
2017-09-06T22:34:29.334Z,81.29
2017-09-06T22:36:32.453Z,81.29
2017-09-06T22:38:33.841Z,81.48
2017-09-06T22:40:35.260Z,81.54
2017-09-06T22:42:36.673Z,81.20
2017-09-06T22:44:38.091Z,81.29
2017-09-06T22:46:39.520Z,81.34
2017-09-06T22:48:42.691Z,81.63
2017-09-06T22:50:44.162Z,81.92
2017-09-06T22:52:45.609Z,81.73
2017-09-06T22:54:48.394Z,81.73
2017-09-06T22:56:49.728Z,82.20
2017-09-06T22:58:51.149Z,82.68
2017-09-06T23:00:52.623Z,82.40
2017-09-06T23:02:54.096Z,82.30
2017-09-06T23:04:56.853Z,82.59
2017-09-06T23:06:58.322Z,82.30
2017-09-06T23:08:59.776Z,82.49
2017-09-06T23:11:01.296Z,82.11
2017-09-06T23:13:03.907Z,82.78
2017-09-06T23:15:07.036Z,83.06
2017-09-06T23:17:08.381Z,82.68
2017-09-06T23:19:09.877Z,82.87
2017-09-06T23:21:11.330Z,83.60
2017-09-06T23:23:12.799Z,83.73
2017-09-06T23:25:15.338Z,82.87
2017-09-06T23:27:17.969Z,83.45
2017-09-06T23:29:19.479Z,83.06
2017-09-06T23:31:22.179Z,83.73
2017-09-06T23:33:24.849Z,83.16
2017-09-06T23:35:26.105Z,83.45
2017-09-06T23:37:27.575Z,83.26
2017-09-06T23:39:30.829Z,83.73
2017-09-06T23:41:34.011Z,83.83
2017-09-06T23:43:35.357Z,84.02
2017-09-06T23:45:36.870Z,83.73
2017-09-06T23:48:19.274Z,83.93
2017-09-06T23:50:20.691Z,83.64
2017-09-06T23:52:24.654Z,84.12
2017-09-06T23:54:26.053Z,83.83
2017-09-06T23:56:27.468Z,83.83
2017-09-06T23:58:28.885Z,83.73
